createdAt,value
2019-02-14T00:01:17.231Z,7.40
2019-02-14T00:03:46.605Z,7.57
2019-02-14T00:06:16.219Z,9.27
2019-02-14T00:08:45.597Z,6.73
2019-02-14T00:11:15.251Z,10.53
2019-02-14T00:13:44.616Z,7.37
2019-02-14T00:16:13.984Z,8.93
2019-02-14T00:18:43.378Z,6.23
2019-02-14T00:21:13.883Z,7.73
2019-02-14T00:23:46.817Z,5.85
2019-02-14T00:26:16.191Z,7.43
2019-02-14T00:28:45.562Z,3.73
2019-02-14T00:31:15.191Z,7.95
2019-02-14T00:33:45.232Z,4.78
2019-02-14T00:36:15.267Z,5.50
2019-02-14T00:38:45.275Z,5.95
2019-02-14T00:41:15.298Z,3.50
2019-02-14T00:43:45.423Z,4.83
2019-02-14T00:46:15.497Z,6.85
2019-02-14T00:48:45.541Z,5.95
2019-02-14T00:51:15.610Z,4.60
2019-02-14T00:53:44.995Z,4.60
2019-02-14T00:56:14.389Z,5.10
2019-02-14T00:58:47.223Z,3.93
2019-02-14T01:01:17.776Z,3.63
2019-02-14T01:03:47.924Z,3.90
2019-02-14T01:06:17.963Z,3.17
2019-02-14T01:08:47.324Z,4.00
2019-02-14T01:11:16.691Z,3.93
2019-02-14T01:13:46.060Z,3.90
2019-02-14T01:16:15.436Z,3.50
2019-02-14T01:18:44.806Z,6.67
2019-02-14T01:21:14.183Z,6.17
2019-02-14T01:23:43.540Z,3.97
2019-02-14T01:26:15.851Z,9.30
2019-02-14T01:28:45.203Z,3.33
2019-02-14T01:31:14.652Z,4.70
2019-02-14T01:33:44.016Z,3.30
2019-02-14T01:36:13.761Z,4.57
2019-02-14T01:38:43.124Z,4.43
2019-02-14T01:41:12.504Z,5.22
2019-02-14T01:43:41.861Z,2.83
2019-02-14T01:46:11.246Z,4.20
2019-02-14T01:48:40.660Z,4.07
2019-02-14T01:51:10.048Z,3.07
2019-02-14T01:53:39.402Z,5.47
2019-02-14T01:56:08.772Z,4.70
2019-02-14T01:58:38.157Z,7.53
2019-02-14T02:01:07.991Z,4.75
2019-02-14T02:03:37.353Z,5.00
2019-02-14T02:06:06.798Z,4.87
2019-02-14T02:08:36.170Z,4.22
2019-02-14T02:11:06.306Z,5.43
2019-02-14T02:13:35.673Z,5.13
2019-02-14T02:16:05.040Z,5.60
2019-02-14T02:18:35.332Z,7.40
2019-02-14T02:21:04.893Z,8.58
2019-02-14T02:23:34.945Z,6.10
2019-02-14T02:26:04.885Z,3.62
2019-02-14T02:28:34.255Z,3.10
2019-02-14T02:31:03.638Z,3.27
2019-02-14T02:33:32.998Z,3.60
2019-02-14T02:36:02.375Z,4.13
2019-02-14T02:38:31.740Z,2.37
2019-02-14T02:41:01.099Z,3.37
2019-02-14T02:43:30.459Z,2.97
2019-02-14T02:46:00.080Z,2.80
2019-02-14T02:48:29.434Z,2.53
2019-02-14T02:50:58.814Z,2.10
2019-02-14T02:53:28.176Z,4.43
2019-02-14T02:55:57.555Z,2.13
2019-02-14T02:58:28.447Z,2.80
2019-02-14T03:00:57.820Z,2.92
2019-02-14T03:03:27.182Z,2.20
2019-02-14T03:05:56.881Z,2.13
2019-02-14T03:08:26.240Z,2.17
2019-02-14T03:10:55.613Z,4.37
2019-02-14T03:13:24.965Z,5.00
2019-02-14T03:15:54.345Z,2.00
2019-02-14T03:18:23.699Z,2.33
2019-02-14T03:20:53.079Z,2.10
2019-02-14T03:23:22.442Z,2.97
2019-02-14T03:25:52.045Z,2.07
2019-02-14T03:28:21.404Z,3.03
2019-02-14T03:30:51.057Z,3.37
2019-02-14T03:33:20.430Z,3.33
2019-02-14T03:35:50.113Z,2.93
2019-02-14T03:38:19.743Z,1.57
2019-02-14T03:40:49.111Z,2.00
2019-02-14T03:43:18.479Z,4.07
2019-02-14T03:45:47.843Z,1.40
2019-02-14T03:48:17.205Z,3.17
2019-02-14T03:50:46.573Z,2.15
2019-02-14T03:53:15.947Z,4.97
2019-02-14T03:55:45.314Z,1.87
2019-02-14T03:58:14.687Z,2.20
2019-02-14T04:00:44.413Z,1.40
2019-02-14T04:03:13.792Z,4.65
2019-02-14T04:05:43.152Z,1.80
2019-02-14T04:08:12.527Z,2.40
2019-02-14T04:10:41.894Z,1.50
2019-02-14T04:13:11.522Z,5.00
2019-02-14T04:15:42.265Z,2.27
2019-02-14T04:18:12.526Z,4.83
2019-02-14T04:20:42.218Z,3.00
2019-02-14T04:23:12.262Z,3.72
2019-02-14T04:25:42.306Z,6.78
2019-02-14T04:28:14.120Z,6.33
2019-02-14T04:30:43.479Z,1.97
2019-02-14T04:33:13.564Z,6.30
2019-02-14T04:35:42.940Z,2.20
2019-02-14T04:38:12.353Z,3.80
2019-02-14T04:40:41.721Z,4.17
2019-02-14T04:43:11.095Z,4.23
2019-02-14T04:45:40.471Z,2.73
2019-02-14T04:48:09.857Z,3.77
2019-02-14T04:50:39.218Z,4.67
2019-02-14T04:53:08.597Z,2.07
2019-02-14T04:55:39.150Z,2.73
2019-02-14T04:58:08.895Z,4.50
2019-02-14T05:00:38.258Z,5.03
2019-02-14T05:03:07.633Z,3.70
2019-02-14T05:05:36.995Z,1.67
2019-02-14T05:08:06.370Z,2.98
2019-02-14T05:10:35.747Z,2.42
2019-02-14T05:13:05.182Z,2.97
2019-02-14T05:15:34.544Z,2.60
2019-02-14T05:18:03.929Z,4.63
2019-02-14T05:20:33.283Z,3.07
2019-02-14T05:23:02.963Z,2.40
2019-02-14T05:25:32.311Z,7.47
2019-02-14T05:28:01.694Z,2.60
2019-02-14T05:30:31.059Z,3.85
2019-02-14T05:33:00.422Z,2.83
2019-02-14T05:35:29.799Z,6.27
2019-02-14T05:37:59.159Z,9.55
2019-02-14T05:40:28.523Z,5.10
2019-02-14T05:42:57.959Z,6.93
2019-02-14T05:45:27.380Z,8.75
2019-02-14T05:47:56.829Z,3.23
2019-02-14T05:50:26.459Z,4.83
2019-02-14T05:52:55.828Z,1.60
2019-02-14T05:55:25.447Z,3.23
2019-02-14T05:57:54.825Z,1.77
2019-02-14T06:00:24.191Z,7.40
2019-02-14T06:02:53.554Z,4.83
2019-02-14T06:05:22.983Z,5.60
2019-02-14T06:07:53.374Z,1.50
2019-02-14T06:10:23.065Z,2.25
2019-02-14T06:12:52.441Z,2.30
2019-02-14T06:15:21.798Z,5.53
2019-02-14T06:17:51.506Z,2.73
2019-02-14T06:20:20.860Z,2.40
2019-02-14T06:22:50.235Z,3.12
2019-02-14T06:25:19.614Z,3.23
2019-02-14T06:27:49.306Z,5.67
2019-02-14T06:30:18.689Z,3.97
2019-02-14T06:32:48.050Z,4.97
2019-02-14T06:35:17.406Z,5.40
2019-02-14T06:37:46.784Z,3.30
2019-02-14T06:40:16.147Z,11.67
2019-02-14T06:42:45.524Z,8.03
2019-02-14T06:45:17.210Z,7.07
2019-02-14T06:47:46.581Z,5.10
2019-02-14T06:50:15.949Z,4.73
2019-02-14T06:52:45.541Z,5.57
2019-02-14T06:55:15.225Z,3.50
2019-02-14T06:57:44.605Z,5.03
2019-02-14T07:00:17.527Z,5.08
2019-02-14T07:02:46.891Z,3.10
2019-02-14T07:05:16.255Z,6.57
2019-02-14T07:07:45.650Z,7.93
2019-02-14T07:10:14.997Z,5.23
2019-02-14T07:12:44.377Z,5.03
2019-02-14T07:15:15.159Z,7.22
2019-02-14T07:17:44.560Z,3.57
2019-02-14T07:20:18.456Z,6.70
2019-02-14T07:22:47.820Z,8.83
2019-02-14T07:25:17.193Z,4.83
2019-02-14T07:27:46.573Z,4.65
2019-02-14T07:30:29.022Z,2.47
2019-02-14T07:32:58.384Z,6.00
2019-02-14T07:35:27.767Z,6.13
2019-02-14T07:37:57.124Z,5.67
2019-02-14T07:40:26.506Z,5.77
2019-02-14T07:42:56.120Z,7.07
2019-02-14T07:45:26.083Z,6.20
2019-02-14T07:47:55.498Z,6.77
2019-02-14T07:50:25.200Z,5.23
2019-02-14T07:52:54.708Z,7.25
2019-02-14T07:55:24.122Z,8.00
2019-02-14T07:57:53.474Z,8.07
2019-02-14T08:00:22.847Z,9.63
2019-02-14T08:02:52.470Z,6.83
2019-02-14T08:05:21.859Z,6.08
2019-02-14T08:07:51.251Z,7.37
2019-02-14T08:10:20.678Z,8.47
2019-02-14T08:12:50.072Z,11.43
2019-02-14T08:15:20.396Z,5.08
2019-02-14T08:17:49.785Z,11.70
2019-02-14T08:20:22.638Z,8.00
2019-02-14T08:22:52.018Z,12.83
2019-02-14T08:25:21.406Z,12.33
2019-02-14T08:27:51.814Z,8.50
2019-02-14T08:30:21.744Z,11.63
2019-02-14T08:32:51.173Z,11.33
2019-02-14T08:35:20.530Z,9.05
2019-02-14T08:37:50.162Z,12.87
2019-02-14T08:40:29.564Z,10.53
2019-02-14T08:42:58.941Z,11.83
2019-02-14T08:45:28.315Z,11.13
2019-02-14T08:47:57.700Z,20.27
2019-02-14T08:50:27.097Z,24.73
2019-02-14T08:52:56.469Z,18.77
2019-02-14T08:55:25.938Z,15.70
2019-02-14T08:57:55.315Z,12.80
2019-02-14T09:00:24.786Z,12.23
2019-02-14T09:02:54.166Z,8.33
2019-02-14T09:05:23.560Z,10.33
2019-02-14T09:07:54.919Z,10.73
2019-02-14T09:10:24.053Z,7.03
2019-02-14T09:12:53.429Z,10.07
2019-02-14T09:15:22.819Z,12.90
2019-02-14T09:17:52.454Z,17.12
2019-02-14T09:20:24.855Z,17.43
2019-02-14T09:22:54.244Z,13.08
2019-02-14T09:25:23.926Z,14.67
2019-02-14T09:27:53.309Z,16.80
2019-02-14T09:30:22.708Z,18.43
2019-02-14T09:32:52.085Z,16.03
2019-02-14T09:35:21.477Z,14.47
2019-02-14T09:37:50.849Z,22.27
2019-02-14T09:40:20.427Z,24.13
2019-02-14T09:42:49.799Z,32.78
2019-02-14T09:45:20.355Z,33.03
2019-02-14T09:47:49.818Z,32.50
2019-02-14T09:50:19.220Z,35.47
2019-02-14T09:52:51.437Z,14.80
2019-02-14T09:55:20.824Z,16.43
2019-02-14T09:57:50.225Z,18.63
2019-02-14T10:00:20.352Z,16.55
2019-02-14T10:02:49.701Z,16.13
2019-02-14T10:05:19.104Z,16.30
2019-02-14T10:07:48.464Z,16.97
2019-02-14T10:10:24.296Z,15.48
2019-02-14T10:12:53.663Z,10.33
2019-02-14T10:15:23.329Z,10.93
2019-02-14T10:17:52.703Z,17.40
2019-02-14T10:20:22.099Z,15.60
2019-02-14T10:22:51.526Z,7.17
2019-02-14T10:25:20.896Z,5.60
2019-02-14T10:27:50.342Z,7.13
2019-02-14T10:30:22.720Z,4.97
2019-02-14T10:32:52.107Z,8.30
2019-02-14T10:35:21.528Z,6.60
2019-02-14T10:37:50.874Z,8.15
2019-02-14T10:40:20.577Z,11.03
2019-02-14T10:42:50.208Z,11.73
2019-02-14T10:45:21.991Z,10.57
2019-02-14T10:47:51.391Z,18.50
2019-02-14T10:50:20.763Z,9.43
2019-02-14T10:52:50.141Z,6.47
2019-02-14T10:55:19.814Z,8.17
2019-02-14T10:57:49.218Z,6.33
2019-02-14T11:00:26.672Z,8.50
2019-02-14T11:02:56.952Z,5.70
2019-02-14T11:05:26.329Z,7.83
2019-02-14T11:07:55.703Z,5.90
2019-02-14T11:10:25.092Z,5.80
2019-02-14T11:12:54.470Z,9.80
2019-02-14T11:15:25.573Z,6.87
2019-02-14T11:17:54.965Z,11.13
2019-02-14T11:20:24.352Z,8.10
2019-02-14T11:22:54.887Z,10.40
2019-02-14T11:25:38.771Z,10.30
2019-02-14T11:28:08.138Z,6.90
2019-02-14T11:30:37.538Z,7.35
2019-02-14T11:33:06.927Z,11.43
2019-02-14T11:35:36.295Z,6.93
2019-02-14T11:38:05.837Z,6.83
2019-02-14T11:40:35.297Z,5.33
2019-02-14T11:43:04.672Z,6.47
2019-02-14T11:45:34.048Z,5.43
2019-02-14T11:48:03.425Z,6.00
2019-02-14T11:50:32.881Z,3.30
2019-02-14T11:53:02.267Z,6.55
2019-02-14T11:55:31.644Z,5.85
2019-02-14T11:58:01.020Z,3.30
2019-02-14T12:00:30.389Z,2.73
2019-02-14T12:02:59.792Z,6.67
2019-02-14T12:05:29.156Z,9.93
2019-02-14T12:07:58.541Z,2.77
2019-02-14T12:10:27.937Z,5.43
2019-02-14T12:12:57.332Z,21.70
2019-02-14T12:15:26.971Z,27.23
2019-02-14T12:17:56.355Z,25.90
2019-02-14T12:20:26.039Z,28.13
2019-02-14T12:22:55.424Z,29.23
2019-02-14T12:25:30.809Z,33.97
2019-02-14T12:28:00.198Z,27.13
2019-02-14T12:30:29.647Z,31.47
2019-02-14T12:32:59.055Z,19.47
2019-02-14T12:35:28.435Z,20.50
2019-02-14T12:37:57.825Z,19.57
2019-02-14T12:40:27.202Z,33.95
2019-02-14T12:42:56.578Z,20.50
2019-02-14T12:45:27.278Z,22.70
2019-02-14T12:47:56.654Z,20.32
2019-02-14T12:50:26.028Z,27.17
2019-02-14T12:52:55.413Z,21.13
2019-02-14T12:55:24.798Z,25.10
2019-02-14T12:57:54.185Z,25.63
2019-02-14T13:00:24.804Z,24.17
2019-02-14T13:02:54.195Z,23.03
2019-02-14T13:05:23.578Z,27.73
2019-02-14T13:07:52.977Z,13.00
2019-02-14T13:10:22.378Z,34.30
2019-02-14T13:12:52.114Z,25.70
2019-02-14T13:15:25.225Z,14.70
2019-02-14T13:17:54.958Z,28.23
2019-02-14T13:20:24.581Z,15.47
2019-02-14T13:22:54.232Z,13.95
2019-02-14T13:25:23.597Z,20.57
2019-02-14T13:27:53.001Z,17.67
2019-02-14T13:30:25.595Z,18.67
2019-02-14T13:32:54.984Z,5.67
2019-02-14T13:35:24.367Z,7.97
2019-02-14T13:37:53.755Z,25.90
2019-02-14T13:40:23.386Z,29.13
2019-02-14T13:42:52.780Z,20.23
2019-02-14T13:45:25.616Z,21.97
2019-02-14T13:47:55.000Z,19.50
2019-02-14T13:50:24.630Z,27.97
2019-02-14T13:52:54.026Z,16.17
2019-02-14T13:55:23.400Z,18.73
2019-02-14T13:57:53.075Z,24.73
2019-02-14T14:00:28.965Z,24.53
2019-02-14T14:02:58.337Z,17.83
2019-02-14T14:05:27.718Z,15.80
2019-02-14T14:07:57.099Z,25.55
2019-02-14T14:10:26.497Z,21.13
2019-02-14T14:12:55.872Z,20.57
2019-02-14T14:15:26.392Z,17.90
2019-02-14T14:17:56.392Z,30.80
2019-02-14T14:20:25.769Z,13.47
2019-02-14T14:22:55.169Z,18.27
2019-02-14T14:25:24.539Z,12.73
2019-02-14T14:27:53.945Z,13.07
2019-02-14T14:30:23.627Z,10.40
2019-02-14T14:32:53.003Z,13.53
2019-02-14T14:35:22.379Z,15.58
2019-02-14T14:37:51.771Z,14.38
2019-02-14T14:40:21.204Z,30.70
2019-02-14T14:42:52.259Z,19.17
2019-02-14T14:45:39.707Z,28.70
2019-02-14T14:48:30.368Z,19.50
2019-02-14T14:50:59.749Z,36.60
2019-02-14T14:53:29.449Z,8.80
2019-02-14T14:56:02.292Z,6.40
2019-02-14T14:58:32.077Z,5.23
2019-02-14T15:01:01.610Z,7.12
2019-02-14T15:03:31.085Z,5.47
2019-02-14T15:06:03.403Z,4.03
2019-02-14T15:08:34.555Z,3.73
2019-02-14T15:11:04.175Z,6.90
2019-02-14T15:13:34.881Z,5.87
2019-02-14T15:16:05.068Z,4.85
2019-02-14T15:18:35.143Z,4.47
2019-02-14T15:21:04.687Z,8.70
2019-02-14T15:23:34.417Z,8.43
2019-02-14T15:26:04.014Z,10.47
2019-02-14T15:28:33.537Z,6.90
2019-02-14T15:31:02.973Z,13.90
2019-02-14T15:33:32.371Z,15.03
2019-02-14T15:36:03.528Z,10.90
2019-02-14T15:38:34.618Z,7.10
2019-02-14T15:41:04.230Z,8.10
2019-02-14T15:43:33.680Z,10.53
2019-02-14T15:46:03.138Z,9.83
2019-02-14T15:48:33.131Z,7.00
2019-02-14T15:51:02.563Z,9.97
2019-02-14T15:53:32.133Z,5.73
2019-02-14T15:56:03.272Z,10.03
2019-02-14T15:58:33.162Z,10.17
2019-02-14T16:01:02.730Z,11.20
2019-02-14T16:03:32.164Z,11.13
2019-02-14T16:06:03.899Z,12.13
2019-02-14T16:08:36.037Z,9.65
2019-02-14T16:11:10.153Z,7.30
2019-02-14T16:13:39.523Z,6.93
2019-02-14T16:16:08.980Z,8.53
2019-02-14T16:18:40.892Z,10.68
2019-02-14T16:21:10.414Z,9.05
2019-02-14T16:23:40.155Z,12.10
2019-02-14T16:26:10.417Z,9.93
2019-02-14T16:28:40.179Z,12.23
2019-02-14T16:31:12.380Z,6.63
2019-02-14T16:33:42.135Z,10.55
2019-02-14T16:36:13.194Z,9.07
2019-02-14T16:38:44.576Z,10.45
2019-02-14T16:41:14.263Z,7.50
2019-02-14T16:43:43.799Z,9.63
2019-02-14T16:46:13.181Z,8.20
2019-02-14T16:48:42.569Z,7.77
2019-02-14T16:51:14.838Z,8.33
2019-02-14T16:53:44.275Z,11.78
2019-02-14T16:56:13.716Z,10.77
2019-02-14T16:58:43.508Z,8.50
2019-02-14T17:01:13.010Z,9.10
2019-02-14T17:03:42.536Z,9.67
2019-02-14T17:06:12.038Z,8.10
2019-02-14T17:08:41.755Z,8.10
2019-02-14T17:11:11.343Z,8.13
2019-02-14T17:13:40.760Z,13.30
2019-02-14T17:16:10.247Z,8.60
2019-02-14T17:18:42.739Z,10.58
2019-02-14T17:21:12.701Z,7.23
2019-02-14T17:23:44.900Z,8.10
2019-02-14T17:26:14.383Z,9.00
2019-02-14T17:28:43.727Z,8.40
2019-02-14T17:31:13.240Z,10.83
2019-02-14T17:33:43.646Z,6.97
2019-02-14T17:36:13.112Z,12.05
2019-02-14T17:38:42.627Z,8.68
2019-02-14T17:41:12.579Z,10.40
2019-02-14T17:43:41.984Z,12.27
2019-02-14T17:46:11.389Z,9.00
2019-02-14T17:48:42.011Z,5.80
2019-02-14T17:51:11.437Z,12.97
2019-02-14T17:53:40.840Z,8.27
2019-02-14T17:56:11.731Z,9.47
2019-02-14T17:58:41.509Z,9.10
2019-02-14T18:01:11.764Z,10.50
2019-02-14T18:03:43.937Z,7.60
2019-02-14T18:06:13.764Z,12.50
2019-02-14T18:08:43.162Z,6.83
2019-02-14T18:11:12.585Z,9.97
2019-02-14T18:13:41.966Z,9.55
2019-02-14T18:16:11.365Z,14.87
2019-02-14T18:18:40.805Z,8.67
2019-02-14T18:21:11.835Z,9.73
2019-02-14T18:23:53.776Z,9.10
2019-02-14T18:26:23.304Z,10.70
2019-02-14T18:28:53.363Z,15.17
2019-02-14T18:31:22.778Z,10.33
2019-02-14T18:33:52.526Z,9.67
2019-02-14T18:36:21.881Z,10.97
2019-02-14T18:38:51.283Z,11.00
2019-02-14T18:41:20.935Z,15.03
2019-02-14T18:43:50.314Z,21.83
2019-02-14T18:46:19.717Z,15.03
2019-02-14T18:48:49.168Z,15.77
2019-02-14T18:51:20.254Z,19.48
2019-02-14T18:53:49.677Z,10.00
2019-02-14T18:56:19.124Z,18.07
2019-02-14T18:58:48.490Z,17.07
2019-02-14T19:01:42.319Z,15.43
2019-02-14T19:04:13.507Z,11.48
2019-02-14T19:06:45.933Z,10.70
2019-02-14T19:09:17.230Z,9.33
2019-02-14T19:11:46.959Z,9.33
2019-02-14T19:14:17.391Z,10.35
2019-02-14T19:16:46.914Z,9.03
2019-02-14T19:19:19.912Z,13.88
2019-02-14T19:21:50.682Z,11.33
2019-02-14T19:24:22.878Z,12.33
2019-02-14T19:27:11.061Z,25.60
2019-02-14T19:29:46.603Z,14.55
2019-02-14T19:32:16.276Z,10.67
2019-02-14T19:34:46.078Z,13.63
2019-02-14T19:37:17.197Z,14.57
2019-02-14T19:39:46.662Z,12.47
2019-02-14T19:42:16.293Z,15.13
2019-02-14T19:44:45.762Z,13.10
2019-02-14T19:47:20.509Z,14.87
2019-02-14T19:49:53.033Z,13.03
2019-02-14T19:52:27.471Z,12.97
2019-02-14T19:54:57.725Z,13.87
2019-02-14T19:57:29.267Z,12.87
2019-02-14T19:59:58.710Z,11.63
2019-02-14T20:02:31.121Z,12.37
2019-02-14T20:05:00.633Z,14.83
2019-02-14T20:07:30.103Z,13.83
2019-02-14T20:09:59.579Z,14.40
2019-02-14T20:12:28.996Z,16.07
2019-02-14T20:14:58.362Z,13.60
2019-02-14T20:17:28.003Z,23.20
2019-02-14T20:19:57.421Z,22.95
2019-02-14T20:22:27.012Z,16.47
2019-02-14T20:24:56.841Z,14.03
2019-02-14T20:27:26.243Z,12.90
2019-02-14T20:29:55.608Z,7.53
2019-02-14T20:32:25.909Z,7.47
2019-02-14T20:34:55.442Z,6.03
2019-02-14T20:37:24.845Z,10.53
2019-02-14T20:39:54.498Z,8.47
2019-02-14T20:42:23.896Z,9.97
2019-02-14T20:44:54.196Z,6.08
2019-02-14T20:47:24.722Z,7.97
2019-02-14T20:49:54.770Z,8.43
2019-02-14T20:52:25.674Z,7.13
2019-02-14T20:54:55.132Z,9.17
2019-02-14T20:57:24.543Z,8.33
2019-02-14T20:59:54.158Z,7.33
2019-02-14T21:02:23.554Z,12.70
2019-02-14T21:04:52.950Z,7.43
2019-02-14T21:07:24.012Z,8.97
2019-02-14T21:09:53.414Z,5.70
2019-02-14T21:12:22.787Z,5.27
2019-02-14T21:14:52.277Z,10.27
2019-02-14T21:17:21.733Z,8.60
2019-02-14T21:19:51.079Z,6.47
2019-02-14T21:22:20.518Z,4.97
2019-02-14T21:24:49.931Z,10.50
2019-02-14T21:27:19.677Z,7.40
2019-02-14T21:29:49.033Z,6.10
2019-02-14T21:32:18.463Z,10.17
2019-02-14T21:34:47.847Z,7.83
2019-02-14T21:37:20.336Z,9.77
2019-02-14T21:39:49.966Z,7.93
2019-02-14T21:42:23.105Z,7.07
2019-02-14T21:44:52.204Z,6.50
2019-02-14T21:47:36.016Z,5.53
2019-02-14T21:50:12.611Z,10.77
2019-02-14T21:52:42.134Z,9.45
2019-02-14T21:55:22.243Z,12.40
2019-02-14T21:57:50.971Z,12.47
2019-02-14T22:00:29.048Z,22.10
2019-02-14T22:02:58.855Z,19.27
2019-02-14T22:05:28.411Z,13.47
2019-02-14T22:08:00.338Z,14.57
2019-02-14T22:10:29.719Z,10.17
2019-02-14T22:12:59.217Z,14.67
2019-02-14T22:15:29.917Z,8.20
2019-02-14T22:17:59.681Z,13.30
2019-02-14T22:20:29.096Z,7.37
2019-02-14T22:22:58.577Z,9.07
2019-02-14T22:25:28.041Z,7.12
2019-02-14T22:27:57.433Z,7.73
2019-02-14T22:30:26.803Z,15.00
2019-02-14T22:32:57.109Z,10.43
2019-02-14T22:35:26.713Z,12.33
2019-02-14T22:37:56.860Z,8.83
2019-02-14T22:40:26.318Z,11.37
2019-02-14T22:42:55.754Z,12.70
2019-02-14T22:45:25.131Z,11.53
2019-02-14T22:47:54.539Z,11.27
2019-02-14T22:50:23.908Z,13.70
2019-02-14T22:52:53.292Z,10.05
2019-02-14T22:55:23.007Z,8.63
2019-02-14T22:57:52.367Z,8.40
2019-02-14T23:00:40.995Z,10.00
2019-02-14T23:03:10.494Z,11.37
2019-02-14T23:05:39.884Z,8.33
2019-02-14T23:08:09.621Z,5.83
2019-02-14T23:10:39.000Z,6.37
2019-02-14T23:13:08.401Z,8.53
2019-02-14T23:15:37.766Z,10.17
2019-02-14T23:18:07.365Z,9.03
2019-02-14T23:20:36.859Z,8.30
2019-02-14T23:23:06.309Z,8.50
2019-02-14T23:25:37.712Z,8.23
2019-02-14T23:28:07.166Z,7.47
2019-02-14T23:30:38.775Z,12.23
2019-02-14T23:33:07.702Z,11.57
2019-02-14T23:35:37.226Z,9.97
2019-02-14T23:38:06.578Z,10.78
2019-02-14T23:40:36.278Z,10.77
2019-02-14T23:43:07.336Z,10.97
2019-02-14T23:45:36.828Z,14.40
2019-02-14T23:48:06.234Z,10.87
2019-02-14T23:50:35.602Z,14.40
2019-02-14T23:53:05.009Z,14.00
2019-02-14T23:55:34.387Z,14.23
2019-02-14T23:58:03.787Z,12.75
